Time;durP1;ratioP1;P1;durP2;ratioP2;P2;SDS_P1;SDS_P2;PMS_P1;PMS_P2;Temp;Humidity;BMP_temperature;BMP_pressure;BME280_temperature;BME280_humidity;BME280_pressure;Samples;Min_cycle;Max_cycle;Signal;HPM_P1;HPM_P2
2022/10/22 00:00:45;;;;;;;5.93;5.40;;;;;;;;;;5273476;23;20098;-81
2022/10/22 00:03:16;;;;;;;6.03;4.30;;;;;;;;;;5252747;28;20048;-79
2022/10/22 00:05:46;;;;;;;6.50;4.40;;;;;;;;;;5252438;28;20055;-81
2022/10/22 00:08:17;;;;;;;6.95;5.45;;;;;;;;;;5251421;28;20028;-81
2022/10/22 00:10:47;;;;;;;4.85;4.45;;;;;;;;;;5256695;28;20162;-81
2022/10/22 00:13:18;;;;;;;9.95;6.15;;;;;;;;;;5257724;28;20035;-81
2022/10/22 00:15:48;;;;;;;5.38;4.97;;;;;;;;;;5257719;28;20024;-79
2022/10/22 00:18:19;;;;;;;7.50;6.10;;;;;;;;;;5259531;28;20016;-80
2022/10/22 00:20:49;;;;;;;4.65;4.22;;;;;;;;;;5257617;28;20028;-82
2022/10/22 00:23:19;;;;;;;6.03;4.63;;;;;;;;;;5255413;28;20048;-79
2022/10/22 00:25:51;;;;;;;5.68;5.18;;;;;;;;;;5255268;28;20040;-82
2022/10/22 00:28:22;;;;;;;5.80;5.13;;;;;;;;;;5254020;28;20121;-82
2022/10/22 00:30:56;;;;;;;6.80;5.35;;;;;;;;;;5255738;28;20036;-81
2022/10/22 00:33:27;;;;;;;5.45;4.85;;;;;;;;;;5253406;28;20012;-83
2022/10/22 00:35:58;;;;;;;13.15;6.00;;;;;;;;;;5256631;28;20009;-80
2022/10/22 00:38:29;;;;;;;6.40;5.80;;;;;;;;;;5253694;28;20111;-80
2022/10/22 00:40:59;;;;;;;5.70;5.22;;;;;;;;;;5250121;28;20028;-80
2022/10/22 00:43:30;;;;;;;9.38;6.35;;;;;;;;;;5248789;28;20032;-79
2022/10/22 00:46:03;;;;;;;6.03;5.53;;;;;;;;;;5250751;28;20446;-81
2022/10/22 00:48:33;;;;;;;12.13;4.80;;;;;;;;;;5250473;28;20032;-80
2022/10/22 00:51:06;;;;;;;5.45;5.05;;;;;;;;;;5248644;28;20201;-80
2022/10/22 00:53:43;;;;;;;7.20;5.47;;;;;;;;;;5249388;28;20034;-81
2022/10/22 00:56:14;;;;;;;6.28;5.88;;;;;;;;;;5249728;28;20019;-79
2022/10/22 00:58:51;;;;;;;7.03;6.53;;;;;;;;;;5247766;28;20025;-79
2022/10/22 01:01:25;;;;;;;7.40;5.15;;;;;;;;;;5246294;28;20058;-79
2022/10/22 01:03:56;;;;;;;11.65;4.90;;;;;;;;;;5244210;28;20021;-79
2022/10/22 01:06:27;;;;;;;5.80;5.32;;;;;;;;;;5246338;28;20018;-79
2022/10/22 01:09:16;;;;;;;5.55;5.20;;;;;;;;;;5246555;28;20386;-79
2022/10/22 01:11:47;;;;;;;14.45;5.75;;;;;;;;;;5244961;28;20439;-78
2022/10/22 01:14:17;;;;;;;6.70;5.65;;;;;;;;;;5245614;28;20023;-80
2022/10/22 01:17:05;;;;;;;7.93;7.28;;;;;;;;;;5246438;28;20048;-79
2022/10/22 01:19:38;;;;;;;7.22;6.25;;;;;;;;;;5247110;28;20096;-78
2022/10/22 01:22:16;;;;;;;7.28;6.35;;;;;;;;;;5250341;28;20051;-80
2022/10/22 01:24:52;;;;;;;6.35;5.72;;;;;;;;;;5250271;28;20078;-78
2022/10/22 01:27:29;;;;;;;7.50;5.63;;;;;;;;;;5250054;28;20020;-81
2022/10/22 01:30:01;;;;;;;8.10;5.78;;;;;;;;;;5251352;28;20024;-80
2022/10/22 01:32:35;;;;;;;5.45;5.07;;;;;;;;;;5253729;28;20062;-81
2022/10/22 01:35:07;;;;;;;6.95;4.80;;;;;;;;;;5254300;28;20183;-81
2022/10/22 01:37:41;;;;;;;7.80;6.20;;;;;;;;;;5254020;28;20024;-79
2022/10/22 01:40:13;;;;;;;7.65;7.15;;;;;;;;;;5254136;28;20017;-80
2022/10/22 01:42:53;;;;;;;7.57;6.85;;;;;;;;;;5253259;28;20036;-81
2022/10/22 01:45:23;;;;;;;12.07;6.68;;;;;;;;;;5251042;28;20023;-79
2022/10/22 01:48:14;;;;;;;6.50;6.10;;;;;;;;;;5254421;28;20021;-80
2022/10/22 01:50:44;;;;;;;7.13;5.40;;;;;;;;;;5222194;28;20033;-80
2022/10/22 01:53:15;;;;;;;5.95;5.32;;;;;;;;;;5253541;28;20062;-81
2022/10/22 01:55:55;;;;;;;6.90;5.78;;;;;;;;;;5252738;28;20425;-83
2022/10/22 01:58:26;;;;;;;7.18;6.40;;;;;;;;;;5254008;28;20024;-82
2022/10/22 02:00:59;;;;;;;11.07;5.87;;;;;;;;;;5251995;28;20169;-79
2022/10/22 02:03:35;;;;;;;9.00;5.32;;;;;;;;;;5251093;28;20025;-80
2022/10/22 02:06:08;;;;;;;4.32;4.15;;;;;;;;;;5250251;28;20016;-80
2022/10/22 02:08:39;;;;;;;6.95;6.35;;;;;;;;;;5250641;28;20074;-80
2022/10/22 02:11:11;;;;;;;7.05;6.30;;;;;;;;;;5251728;28;20032;-81
2022/10/22 02:13:43;;;;;;;5.43;5.00;;;;;;;;;;5250535;28;20030;-80
2022/10/22 02:16:17;;;;;;;6.45;5.95;;;;;;;;;;5250421;28;20101;-81
2022/10/22 02:18:49;;;;;;;5.82;5.43;;;;;;;;;;5249686;28;20059;-81
2022/10/22 02:21:19;;;;;;;7.05;6.60;;;;;;;;;;5250412;28;20017;-80
2022/10/22 02:23:49;;;;;;;12.80;4.70;;;;;;;;;;5250040;28;20081;-82
2022/10/22 02:26:26;;;;;;;5.23;4.83;;;;;;;;;;5251585;28;20128;-80
2022/10/22 02:29:02;;;;;;;6.40;5.68;;;;;;;;;;5251105;28;20259;-81
2022/10/22 02:31:34;;;;;;;8.15;6.60;;;;;;;;;;5251022;28;20032;-80
2022/10/22 02:34:09;;;;;;;7.32;6.10;;;;;;;;;;5250505;28;20452;-81
2022/10/22 02:36:40;;;;;;;15.85;5.50;;;;;;;;;;5249128;28;20390;-81
2022/10/22 02:39:11;;;;;;;6.25;5.78;;;;;;;;;;5251442;28;20174;-81
2022/10/22 02:41:41;;;;;;;24.02;6.35;;;;;;;;;;5249225;28;20078;-81
2022/10/22 02:44:11;;;;;;;5.60;5.20;;;;;;;;;;5246935;28;20490;-80
2022/10/22 02:46:42;;;;;;;14.32;5.68;;;;;;;;;;5250799;28;20364;-81
2022/10/22 02:49:12;;;;;;;6.93;5.45;;;;;;;;;;5250734;28;20020;-80
2022/10/22 02:51:42;;;;;;;5.83;5.10;;;;;;;;;;5250584;28;20070;-81
2022/10/22 02:54:13;;;;;;;6.33;5.93;;;;;;;;;;5249596;28;20263;-81
2022/10/22 02:56:43;;;;;;;5.68;5.10;;;;;;;;;;5249427;28;20289;-81
2022/10/22 02:59:13;;;;;;;30.23;7.37;;;;;;;;;;5251178;28;20060;-81
2022/10/22 03:01:43;;;;;;;5.87;5.10;;;;;;;;;;5251453;28;20269;-81
2022/10/22 03:04:13;;;;;;;5.33;5.03;;;;;;;;;;5251120;28;20278;-80
2022/10/22 03:06:44;;;;;;;13.63;7.07;;;;;;;;;;5252833;28;20294;-80
2022/10/22 03:09:14;;;;;;;6.38;5.53;;;;;;;;;;5252281;28;20270;-80
2022/10/22 03:11:44;;;;;;;5.87;5.47;;;;;;;;;;5251559;28;20024;-81
2022/10/22 03:14:14;;;;;;;6.00;5.60;;;;;;;;;;5251028;28;20254;-81
2022/10/22 03:16:44;;;;;;;6.17;4.63;;;;;;;;;;5250271;28;20012;-80
2022/10/22 03:19:15;;;;;;;8.33;6.73;;;;;;;;;;5257902;28;20276;-79
2022/10/22 03:21:50;;;;;;;5.90;4.63;;;;;;;;;;5263072;28;20262;-80
2022/10/22 03:24:26;;;;;;;11.73;6.03;;;;;;;;;;5249381;28;20021;-81
2022/10/22 03:26:56;;;;;;;10.00;6.72;;;;;;;;;;5251779;28;20031;-81
2022/10/22 03:29:26;;;;;;;7.95;5.82;;;;;;;;;;5251795;28;20390;-81
2022/10/22 03:31:57;;;;;;;4.85;4.55;;;;;;;;;;5252054;28;20016;-82
2022/10/22 03:34:27;;;;;;;6.15;5.65;;;;;;;;;;5250589;28;20013;-80
2022/10/22 03:36:58;;;;;;;6.93;5.03;;;;;;;;;;5251697;28;20067;-79
2022/10/22 03:39:30;;;;;;;6.72;5.85;;;;;;;;;;5251192;28;20020;-81
2022/10/22 03:42:01;;;;;;;7.90;5.25;;;;;;;;;;5249851;28;20048;-80
2022/10/22 03:44:31;;;;;;;10.40;5.40;;;;;;;;;;5248839;28;20028;-81
2022/10/22 03:47:02;;;;;;;8.52;5.20;;;;;;;;;;5250886;28;20041;-80
2022/10/22 03:49:32;;;;;;;5.88;4.47;;;;;;;;;;5250602;28;20404;-78
2022/10/22 03:52:09;;;;;;;4.93;4.43;;;;;;;;;;5251220;28;20020;-79
2022/10/22 03:54:41;;;;;;;9.13;5.72;;;;;;;;;;5250196;28;20020;-81
2022/10/22 03:57:11;;;;;;;10.50;5.78;;;;;;;;;;5249641;28;20020;-80
2022/10/22 03:59:42;;;;;;;5.67;5.17;;;;;;;;;;5250069;28;20024;-80
2022/10/22 04:02:13;;;;;;;10.48;3.95;;;;;;;;;;5249944;28;20297;-79
2022/10/22 04:04:43;;;;;;;13.23;4.90;;;;;;;;;;5249229;28;20020;-80
2022/10/22 04:07:13;;;;;;;5.60;4.93;;;;;;;;;;5251486;28;20048;-80
2022/10/22 04:09:44;;;;;;;5.57;4.83;;;;;;;;;;5250961;28;20039;-80
2022/10/22 04:12:14;;;;;;;10.40;6.50;;;;;;;;;;5250823;28;20259;-80
2022/10/22 04:14:44;;;;;;;4.43;4.00;;;;;;;;;;5250326;28;20277;-80
2022/10/22 04:17:15;;;;;;;5.30;3.33;;;;;;;;;;5251351;28;20278;-81
2022/10/22 04:19:45;;;;;;;5.80;3.92;;;;;;;;;;5250337;28;20021;-80
2022/10/22 04:22:15;;;;;;;5.90;4.72;;;;;;;;;;5250602;28;20230;-80
2022/10/22 04:24:45;;;;;;;5.40;4.03;;;;;;;;;;5247933;28;20016;-80
2022/10/22 04:27:15;;;;;;;6.03;4.70;;;;;;;;;;5250771;28;20271;-81
2022/10/22 04:29:46;;;;;;;6.43;3.73;;;;;;;;;;5250709;28;20275;-81
2022/10/22 04:32:16;;;;;;;4.63;4.05;;;;;;;;;;5250842;28;20278;-79
2022/10/22 04:34:46;;;;;;;10.27;4.53;;;;;;;;;;5248801;28;20096;-80
2022/10/22 04:37:16;;;;;;;6.33;4.77;;;;;;;;;;5249859;28;20025;-81
2022/10/22 04:39:46;;;;;;;9.70;4.17;;;;;;;;;;5249717;28;20262;-79
2022/10/22 04:42:17;;;;;;;14.90;3.93;;;;;;;;;;5248554;28;20747;-78
2022/10/22 04:44:47;;;;;;;5.53;3.87;;;;;;;;;;5248328;28;20271;-80
2022/10/22 04:47:17;;;;;;;5.63;4.10;;;;;;;;;;5248648;28;20309;-80
2022/10/22 04:49:47;;;;;;;5.77;3.43;;;;;;;;;;5248537;28;20266;-82
2022/10/22 04:52:17;;;;;;;7.03;3.20;;;;;;;;;;5248176;28;20744;-79
2022/10/22 04:54:48;;;;;;;6.10;4.70;;;;;;;;;;5244431;28;20047;-78
2022/10/22 04:57:18;;;;;;;13.67;3.57;;;;;;;;;;5246767;28;20278;-78
2022/10/22 04:59:48;;;;;;;8.43;5.47;;;;;;;;;;5246729;28;20341;-80
2022/10/22 05:02:18;;;;;;;4.37;4.10;;;;;;;;;;5246925;28;20274;-80
2022/10/22 05:04:49;;;;;;;9.13;4.15;;;;;;;;;;5244889;28;20274;-82
2022/10/22 05:07:19;;;;;;;10.07;3.55;;;;;;;;;;5249345;28;20017;-80
2022/10/22 05:09:52;;;;;;;6.78;3.72;;;;;;;;;;5256284;28;20016;-81
2022/10/22 05:12:22;;;;;;;7.10;4.00;;;;;;;;;;5252810;28;20099;-82
2022/10/22 05:14:52;;;;;;;4.05;3.78;;;;;;;;;;5250102;28;20104;-82
2022/10/22 05:17:23;;;;;;;8.85;4.45;;;;;;;;;;5254514;28;20021;-81
2022/10/22 05:19:53;;;;;;;11.75;4.15;;;;;;;;;;5255847;28;20016;-80
2022/10/22 05:22:23;;;;;;;4.77;4.30;;;;;;;;;;5254538;28;20335;-80
2022/10/22 05:24:53;;;;;;;8.53;5.43;;;;;;;;;;5252338;28;20334;-81
2022/10/22 05:27:24;;;;;;;2.70;2.50;;;;;;;;;;5259302;28;20274;-81
2022/10/22 05:29:54;;;;;;;5.60;3.83;;;;;;;;;;5256185;28;20278;-81
2022/10/22 05:32:24;;;;;;;6.65;3.60;;;;;;;;;;5248932;28;20072;-81
2022/10/22 05:34:55;;;;;;;3.67;3.37;;;;;;;;;;5251050;28;20017;-81
2022/10/22 05:37:25;;;;;;;4.80;4.40;;;;;;;;;;5251210;28;20267;-81
2022/10/22 05:39:55;;;;;;;6.60;4.10;;;;;;;;;;5251095;28;20107;-80
2022/10/22 05:42:29;;;;;;;5.67;3.40;;;;;;;;;;5252476;28;20353;-80
2022/10/22 05:45:00;;;;;;;9.63;3.90;;;;;;;;;;5254101;28;20274;-79
2022/10/22 05:47:30;;;;;;;4.47;4.10;;;;;;;;;;5252668;28;20481;-81
2022/10/22 05:50:00;;;;;;;6.30;3.55;;;;;;;;;;5251687;28;20382;-81
2022/10/22 05:52:30;;;;;;;4.70;3.70;;;;;;;;;;5252178;28;20390;-81
2022/10/22 05:55:01;;;;;;;4.30;3.40;;;;;;;;;;5251001;28;20028;-81
2022/10/22 05:57:31;;;;;;;4.72;3.47;;;;;;;;;;5251664;28;20266;-81
2022/10/22 06:00:01;;;;;;;7.28;4.15;;;;;;;;;;5266334;22;20045;-65
2022/10/22 06:02:31;;;;;;;4.85;3.45;;;;;;;;;;5209504;28;20013;-66
2022/10/22 06:05:02;;;;;;;5.20;4.53;;;;;;;;;;5209541;28;20031;-66
2022/10/22 06:07:33;;;;;;;17.23;6.35;;;;;;;;;;5232662;28;20040;-66
2022/10/22 06:10:03;;;;;;;5.35;3.03;;;;;;;;;;5209131;28;20511;-64
2022/10/22 06:12:33;;;;;;;10.07;3.05;;;;;;;;;;5213185;28;20071;-65
2022/10/22 06:15:04;;;;;;;10.65;3.70;;;;;;;;;;5226436;28;20017;-65
2022/10/22 06:17:34;;;;;;;5.50;3.92;;;;;;;;;;5209052;28;20021;-65
2022/10/22 06:20:05;;;;;;;19.67;4.38;;;;;;;;;;5209295;28;20119;-65
2022/10/22 06:22:35;;;;;;;3.67;3.38;;;;;;;;;;5209051;28;20385;-65
2022/10/22 06:25:07;;;;;;;3.40;3.20;;;;;;;;;;5207746;28;20031;-65
2022/10/22 06:27:37;;;;;;;6.03;5.00;;;;;;;;;;5209109;28;20029;-65
2022/10/22 06:30:08;;;;;;;10.40;3.83;;;;;;;;;;5225953;28;20479;-65
2022/10/22 06:32:38;;;;;;;14.73;4.22;;;;;;;;;;5224316;28;20017;-65
2022/10/22 06:35:08;;;;;;;8.40;3.70;;;;;;;;;;5208418;28;20123;-65
2022/10/22 06:37:38;;;;;;;12.77;3.88;;;;;;;;;;5208751;28;20422;-65
2022/10/22 06:40:09;;;;;;;10.25;3.63;;;;;;;;;;5208792;28;20017;-64
2022/10/22 06:42:40;;;;;;;8.55;4.03;;;;;;;;;;5209129;28;20408;-66
2022/10/22 06:45:10;;;;;;;6.93;2.97;;;;;;;;;;5208894;28;20052;-65
2022/10/22 06:47:40;;;;;;;15.43;4.68;;;;;;;;;;5208855;28;20020;-65
2022/10/22 06:50:11;;;;;;;6.85;3.55;;;;;;;;;;5209051;28;20120;-65
2022/10/22 06:52:41;;;;;;;3.50;2.65;;;;;;;;;;5208925;28;20029;-65
2022/10/22 06:55:11;;;;;;;10.38;3.95;;;;;;;;;;5208800;28;20024;-65
2022/10/22 06:57:41;;;;;;;3.78;3.47;;;;;;;;;;5208952;28;20079;-67
2022/10/22 07:00:12;;;;;;;2.55;2.28;;;;;;;;;;5208601;28;20116;-66
2022/10/22 07:02:42;;;;;;;3.28;2.38;;;;;;;;;;5208458;28;20111;-65
2022/10/22 07:05:13;;;;;;;10.05;4.68;;;;;;;;;;5208612;28;20059;-65
2022/10/22 07:07:46;;;;;;;15.00;5.15;;;;;;;;;;5208693;28;20047;-65
2022/10/22 07:10:16;;;;;;;10.48;3.72;;;;;;;;;;5226536;28;20020;-65
2022/10/22 07:12:47;;;;;;;16.50;4.13;;;;;;;;;;5207744;28;20024;-66
2022/10/22 07:15:17;;;;;;;3.63;3.30;;;;;;;;;;5192224;28;20108;-65
2022/10/22 07:17:47;;;;;;;6.45;4.70;;;;;;;;;;5226594;28;20469;-65
2022/10/22 07:20:19;;;;;;;7.32;3.10;;;;;;;;;;5208163;28;20082;-64
2022/10/22 07:22:50;;;;;;;8.50;3.75;;;;;;;;;;5208325;28;20119;-65
2022/10/22 07:25:20;;;;;;;3.70;3.33;;;;;;;;;;5208038;28;20571;-66
2022/10/22 07:27:51;;;;;;;8.52;3.97;;;;;;;;;;5209074;28;20462;-65
2022/10/22 07:30:21;;;;;;;31.92;3.50;;;;;;;;;;5207223;28;20104;-65
2022/10/22 07:32:51;;;;;;;5.72;3.17;;;;;;;;;;5207626;28;20019;-65
2022/10/22 07:35:22;;;;;;;2.67;2.47;;;;;;;;;;5207731;28;20017;-65
2022/10/22 07:37:52;;;;;;;4.40;2.97;;;;;;;;;;5207976;28;20465;-65
2022/10/22 07:40:22;;;;;;;4.22;3.08;;;;;;;;;;5226071;28;20400;-65
2022/10/22 07:42:52;;;;;;;5.68;2.45;;;;;;;;;;5208121;28;20021;-66
2022/10/22 07:45:23;;;;;;;6.07;3.28;;;;;;;;;;5207802;28;20534;-64
2022/10/22 07:47:53;;;;;;;9.57;3.70;;;;;;;;;;5207654;28;20017;-65
2022/10/22 07:50:23;;;;;;;2.72;2.53;;;;;;;;;;5207723;28;20108;-65
2022/10/22 07:52:54;;;;;;;4.95;3.42;;;;;;;;;;5208049;28;20013;-65
2022/10/22 07:55:24;;;;;;;12.80;3.15;;;;;;;;;;5207015;28;20039;-65
2022/10/22 07:57:55;;;;;;;5.60;3.13;;;;;;;;;;5213723;28;20056;-65
2022/10/22 08:00:25;;;;;;;5.82;3.47;;;;;;;;;;5204677;28;20149;-65
2022/10/22 08:02:55;;;;;;;5.93;2.72;;;;;;;;;;5207589;28;20027;-66
2022/10/22 08:05:25;;;;;;;3.03;2.33;;;;;;;;;;5225310;28;20025;-65
2022/10/22 08:07:56;;;;;;;4.95;3.03;;;;;;;;;;5207473;28;20392;-65
2022/10/22 08:10:26;;;;;;;4.43;2.83;;;;;;;;;;5207541;28;20012;-65
2022/10/22 08:12:56;;;;;;;9.25;4.43;;;;;;;;;;5207198;28;20111;-65
2022/10/22 08:15:27;;;;;;;2.00;1.88;;;;;;;;;;5206134;28;20025;-65
2022/10/22 08:17:57;;;;;;;4.13;3.83;;;;;;;;;;5207453;28;20416;-67
2022/10/22 08:20:27;;;;;;;6.45;3.10;;;;;;;;;;5207456;28;20048;-65
2022/10/22 08:22:58;;;;;;;13.68;3.28;;;;;;;;;;5207078;28;20112;-64
2022/10/22 08:25:28;;;;;;;4.63;3.33;;;;;;;;;;5206701;28;20047;-64
2022/10/22 08:27:58;;;;;;;11.10;3.90;;;;;;;;;;5207028;28;20044;-64
2022/10/22 08:30:29;;;;;;;9.20;3.53;;;;;;;;;;5225038;28;20104;-64
2022/10/22 08:32:59;;;;;;;3.92;3.08;;;;;;;;;;5206998;28;20029;-66
2022/10/22 08:35:30;;;;;;;3.88;3.47;;;;;;;;;;5206768;28;20100;-64
2022/10/22 08:38:00;;;;;;;6.45;3.92;;;;;;;;;;5206965;28;20029;-64
2022/10/22 08:40:36;;;;;;;7.78;1.90;;;;;;;;;;5208513;28;20024;-64
2022/10/22 08:43:22;;;;;;;6.13;3.25;;;;;;;;;;5211092;28;20024;-65
2022/10/22 08:46:02;;;;;;;15.50;2.95;;;;;;;;;;5211105;28;20025;-65
2022/10/22 08:48:35;;;;;;;6.20;2.80;;;;;;;;;;5211068;28;20090;-65
2022/10/22 08:51:09;;;;;;;4.22;3.28;;;;;;;;;;5229067;28;20025;-65
2022/10/22 08:53:52;;;;;;;5.35;2.70;;;;;;;;;;5209934;28;20028;-64
2022/10/22 08:56:22;;;;;;;3.47;3.22;;;;;;;;;;5210937;28;20033;-64
2022/10/22 08:58:56;;;;;;;5.50;3.17;;;;;;;;;;5229156;28;20068;-64
2022/10/22 09:01:38;;;;;;;4.35;2.92;;;;;;;;;;5210872;28;20091;-67
2022/10/22 09:04:18;;;;;;;6.00;3.20;;;;;;;;;;5210559;28;20033;-64
2022/10/22 09:06:48;;;;;;;6.88;2.38;;;;;;;;;;5210657;28;20446;-65
2022/10/22 09:09:19;;;;;;;11.73;4.25;;;;;;;;;;5228238;28;20060;-64
2022/10/22 09:11:50;;;;;;;2.63;2.35;;;;;;;;;;5210585;28;20039;-63
2022/10/22 09:14:22;;;;;;;7.70;2.47;;;;;;;;;;5210107;28;20075;-63
2022/10/22 09:16:56;;;;;;;2.70;2.10;;;;;;;;;;5209877;28;20013;-63
2022/10/22 09:19:32;;;;;;;4.40;1.83;;;;;;;;;;5217435;28;20025;-63
2022/10/22 09:22:09;;;;;;;2.83;2.60;;;;;;;;;;5222998;28;20033;-63
2022/10/22 09:24:42;;;;;;;4.50;2.25;;;;;;;;;;5227890;28;20549;-64
2022/10/22 09:27:18;;;;;;;5.57;3.85;;;;;;;;;;5227128;28;20017;-64
2022/10/22 09:29:48;;;;;;;4.47;3.38;;;;;;;;;;5227752;28;20017;-64
2022/10/22 09:32:18;;;;;;;6.05;2.92;;;;;;;;;;5209615;28;20020;-64
2022/10/22 09:34:54;;;;;;;6.72;4.05;;;;;;;;;;5209751;28;20021;-64
2022/10/22 09:37:26;;;;;;;4.03;3.42;;;;;;;;;;5227088;28;20032;-63
2022/10/22 09:39:57;;;;;;;3.17;2.88;;;;;;;;;;5210071;28;20037;-64
2022/10/22 09:42:28;;;;;;;8.30;3.08;;;;;;;;;;5208344;28;20480;-63
2022/10/22 09:44:58;;;;;;;2.78;2.67;;;;;;;;;;5209101;28;20070;-63
2022/10/22 09:47:33;;;;;;;6.07;3.17;;;;;;;;;;5209346;28;20025;-64
2022/10/22 09:50:10;;;;;;;6.28;3.80;;;;;;;;;;5209235;28;20108;-63
2022/10/22 09:52:40;;;;;;;5.03;2.95;;;;;;;;;;5216540;28;20498;-63
2022/10/22 09:55:16;;;;;;;4.38;3.13;;;;;;;;;;5208499;28;20017;-63
2022/10/22 09:57:57;;;;;;;5.03;2.65;;;;;;;;;;5209337;28;20017;-63
2022/10/22 10:00:28;;;;;;;3.92;3.50;;;;;;;;;;5227277;28;20548;-63
2022/10/22 10:02:59;;;;;;;3.42;2.65;;;;;;;;;;5208798;28;20103;-64
2022/10/22 10:05:31;;;;;;;7.82;2.65;;;;;;;;;;5208752;28;20021;-63
2022/10/22 10:08:04;;;;;;;5.35;4.20;;;;;;;;;;5208677;28;20028;-64
2022/10/22 10:10:45;;;;;;;7.03;4.47;;;;;;;;;;5206580;28;20048;-64
2022/10/22 10:13:22;;;;;;;3.35;2.60;;;;;;;;;;5209048;28;20021;-64
2022/10/22 10:16:00;;;;;;;3.13;2.92;;;;;;;;;;5209200;28;20020;-64
2022/10/22 10:18:42;;;;;;;4.97;3.75;;;;;;;;;;5209582;28;20086;-64
2022/10/22 10:21:20;;;;;;;4.85;3.75;;;;;;;;;;5209225;28;20029;-64
2022/10/22 10:23:53;;;;;;;9.15;2.13;;;;;;;;;;5209587;28;20017;-64
2022/10/22 10:26:30;;;;;;;7.97;3.17;;;;;;;;;;5209220;28;20481;-64
2022/10/22 10:29:03;;;;;;;4.22;3.15;;;;;;;;;;5227109;28;20017;-64
2022/10/22 10:31:39;;;;;;;5.82;3.03;;;;;;;;;;5208878;28;20479;-64
2022/10/22 10:34:09;;;;;;;2.92;2.72;;;;;;;;;;5208715;28;20024;-64
2022/10/22 10:36:39;;;;;;;2.92;2.75;;;;;;;;;;5208640;28;20066;-64
2022/10/22 10:39:24;;;;;;;9.57;3.63;;;;;;;;;;5207927;28;20021;-64
2022/10/22 10:42:00;;;;;;;3.75;2.65;;;;;;;;;;5187894;28;20022;-63
2022/10/22 10:44:49;;;;;;;5.50;3.35;;;;;;;;;;5185865;28;20156;-64
2022/10/22 10:47:55;;;;;;;2.45;2.25;;;;;;;;;;5187322;28;20490;-64
2022/10/22 10:50:29;;;;;;;4.13;3.00;;;;;;;;;;5102724;29;20062;-65
2022/10/22 10:53:05;;;;;;;5.57;2.85;;;;;;;;;;5173669;28;20053;-65
2022/10/22 10:55:51;;;;;;;3.78;2.97;;;;;;;;;;5188269;28;20363;-64
2022/10/22 10:58:25;;;;;;;3.35;2.83;;;;;;;;;;5206096;28;20022;-64
2022/10/22 11:01:14;;;;;;;6.53;4.00;;;;;;;;;;5188061;28;20516;-64
2022/10/22 11:04:13;;;;;;;3.03;2.38;;;;;;;;;;5186665;28;20112;-64
2022/10/22 11:06:43;;;;;;;;;;;;;;;;;;5118732;28;20056;-64
2022/10/22 11:09:35;;;;;;;5.07;4.03;;;;;;;;;;5188090;28;19912;-64
2022/10/22 11:12:10;;;;;;;4.28;3.38;;;;;;;;;;5188063;28;20036;-64
2022/10/22 11:14:56;;;;;;;4.88;2.80;;;;;;;;;;5187732;28;20497;-64
2022/10/22 11:17:31;;;;;;;3.05;2.85;;;;;;;;;;5187736;28;20056;-64
2022/10/22 11:20:20;;;;;;;2.85;2.53;;;;;;;;;;5187681;28;20014;-65
2022/10/22 11:23:00;;;;;;;8.13;3.90;;;;;;;;;;5187521;28;20104;-65
2022/10/22 11:25:33;;;;;;;6.13;3.60;;;;;;;;;;5187333;28;20386;-64
2022/10/22 11:28:03;;;;;;;2.17;2.08;;;;;;;;;;5187679;28;20022;-64
2022/10/22 11:30:35;;;;;;;6.57;2.45;;;;;;;;;;5187381;28;20535;-63
2022/10/22 11:33:09;;;;;;;6.43;2.50;;;;;;;;;;5187603;28;20021;-63
2022/10/22 11:35:41;;;;;;;2.55;2.22;;;;;;;;;;5187192;28;20116;-63
2022/10/22 11:38:13;;;;;;;3.13;2.33;;;;;;;;;;5187852;28;20246;-63
2022/10/22 11:40:46;;;;;;;7.20;3.67;;;;;;;;;;5187438;28;20021;-64
2022/10/22 11:43:28;;;;;;;3.20;3.00;;;;;;;;;;5204781;28;20055;-64
2022/10/22 11:46:07;;;;;;;6.85;2.17;;;;;;;;;;5187303;28;20031;-64
2022/10/22 11:48:38;;;;;;;7.13;3.08;;;;;;;;;;5187599;28;20025;-63
2022/10/22 11:51:26;;;;;;;4.82;2.42;;;;;;;;;;5187363;28;20009;-63
2022/10/22 11:53:57;;;;;;;4.47;3.28;;;;;;;;;;5186950;28;20021;-63
2022/10/22 11:56:36;;;;;;;2.92;2.55;;;;;;;;;;5187374;28;20028;-64
2022/10/22 11:59:07;;;;;;;5.55;3.10;;;;;;;;;;5187014;28;20090;-64
2022/10/22 12:01:41;;;;;;;6.03;3.03;;;;;;;;;;5201170;22;20095;-68
2022/10/22 12:04:20;;;;;;;3.05;2.63;;;;;;;;;;5186374;28;20014;-67
2022/10/22 12:06:55;;;;;;;6.20;3.22;;;;;;;;;;5187231;28;20025;-68
2022/10/22 12:09:29;;;;;;;12.38;3.05;;;;;;;;;;5186863;28;20068;-67
2022/10/22 12:12:11;;;;;;;2.50;2.03;;;;;;;;;;5186980;28;20010;-68
2022/10/22 12:14:56;;;;;;;2.20;2.05;;;;;;;;;;5186168;28;20477;-67
2022/10/22 12:17:27;;;;;;;3.03;2.20;;;;;;;;;;5186998;28;20384;-67
2022/10/22 12:20:04;;;;;;;5.47;4.07;;;;;;;;;;5186678;28;20017;-68
2022/10/22 12:22:38;;;;;;;3.40;2.33;;;;;;;;;;5204546;28;20021;-68
2022/10/22 12:25:15;;;;;;;6.45;3.55;;;;;;;;;;5186352;28;20029;-68
2022/10/22 12:27:49;;;;;;;3.28;3.05;;;;;;;;;;5186390;28;20022;-68
2022/10/22 12:30:22;;;;;;;4.82;3.67;;;;;;;;;;5186364;28;20021;-67
2022/10/22 12:32:55;;;;;;;9.75;3.83;;;;;;;;;;5186523;28;20068;-67
2022/10/22 12:35:27;;;;;;;2.53;2.33;;;;;;;;;;5186288;28;20485;-68
2022/10/22 12:38:02;;;;;;;3.00;2.80;;;;;;;;;;5186536;28;20029;-67
2022/10/22 12:40:34;;;;;;;5.10;2.63;;;;;;;;;;5186466;28;20074;-68
2022/10/22 12:43:09;;;;;;;7.70;3.65;;;;;;;;;;5186475;28;20026;-68
2022/10/22 12:45:41;;;;;;;7.15;3.38;;;;;;;;;;5186343;28;20030;-68
2022/10/22 12:48:22;;;;;;;3.55;2.67;;;;;;;;;;5186497;28;20025;-67
2022/10/22 12:50:57;;;;;;;6.32;3.05;;;;;;;;;;5204130;28;20389;-68
2022/10/22 12:53:31;;;;;;;2.25;1.90;;;;;;;;;;5186206;28;20018;-68
2022/10/22 12:56:03;;;;;;;5.68;3.13;;;;;;;;;;5186345;28;20024;-68
2022/10/22 12:58:38;;;;;;;3.00;2.72;;;;;;;;;;5186298;28;20025;-69
2022/10/22 13:01:10;;;;;;;3.28;2.40;;;;;;;;;;5186754;28;20025;-68
2022/10/22 13:03:43;;;;;;;7.65;2.75;;;;;;;;;;5186964;28;20025;-67
2022/10/22 13:06:24;;;;;;;3.78;3.30;;;;;;;;;;5187225;28;20022;-68
2022/10/22 13:08:58;;;;;;;4.65;4.30;;;;;;;;;;5186985;28;20122;-67
2022/10/22 13:11:48;;;;;;;4.13;2.80;;;;;;;;;;5186980;28;20053;-69
2022/10/22 13:14:21;;;;;;;4.68;2.38;;;;;;;;;;5186649;28;20048;-68
2022/10/22 13:17:10;;;;;;;2.13;2.00;;;;;;;;;;5187329;28;20487;-68
2022/10/22 13:19:46;;;;;;;6.30;3.07;;;;;;;;;;5186954;28;20013;-68
2022/10/22 13:22:28;;;;;;;5.32;2.67;;;;;;;;;;5186969;28;20261;-69
2022/10/22 13:25:18;;;;;;;6.80;3.28;;;;;;;;;;5187015;28;20025;-69
2022/10/22 13:27:55;;;;;;;2.83;2.63;;;;;;;;;;5174981;28;20029;-68
2022/10/22 13:30:30;;;;;;;6.15;4.10;;;;;;;;;;5191177;28;20026;-70
2022/10/22 13:33:02;;;;;;;7.00;2.78;;;;;;;;;;5190771;28;20481;-67
2022/10/22 13:35:36;;;;;;;5.43;2.33;;;;;;;;;;5190620;28;20025;-69
2022/10/22 13:38:14;;;;;;;5.65;2.72;;;;;;;;;;5190707;28;20388;-68
2022/10/22 13:40:44;;;;;;;5.97;3.03;;;;;;;;;;5208042;28;20405;-68
2022/10/22 13:43:15;;;;;;;2.78;2.65;;;;;;;;;;5190099;28;20032;-68
2022/10/22 13:45:46;;;;;;;10.57;3.22;;;;;;;;;;5190177;28;20056;-66
2022/10/22 13:48:20;;;;;;;3.83;3.05;;;;;;;;;;5190221;28;20155;-66
2022/10/22 13:50:51;;;;;;;3.08;2.70;;;;;;;;;;5190280;28;20022;-67
2022/10/22 13:53:24;;;;;;;5.15;3.75;;;;;;;;;;5189921;28;20017;-66
2022/10/22 13:55:54;;;;;;;7.93;2.97;;;;;;;;;;5208177;28;20392;-68
2022/10/22 13:58:24;;;;;;;2.65;2.53;;;;;;;;;;5190366;28;20030;-68
2022/10/22 14:00:56;;;;;;;2.78;1.65;;;;;;;;;;5189887;28;20566;-68
2022/10/22 14:03:31;;;;;;;4.85;2.15;;;;;;;;;;5189578;28;20163;-68
2022/10/22 14:06:02;;;;;;;2.35;2.15;;;;;;;;;;5190112;28;20026;-66
2022/10/22 14:08:32;;;;;;;2.28;2.08;;;;;;;;;;5189898;28;20492;-68
2022/10/22 14:11:02;;;;;;;2.25;2.05;;;;;;;;;;5189838;28;20059;-65
2022/10/22 14:13:33;;;;;;;4.25;3.42;;;;;;;;;;5189477;28;20024;-67
2022/10/22 14:16:04;;;;;;;2.65;2.38;;;;;;;;;;5189841;28;20530;-67
2022/10/22 14:18:35;;;;;;;3.15;2.58;;;;;;;;;;5189794;28;20108;-67
2022/10/22 14:21:06;;;;;;;4.25;3.17;;;;;;;;;;5189860;28;20117;-70
2022/10/22 14:23:38;;;;;;;2.75;1.92;;;;;;;;;;5189549;28;20028;-66
2022/10/22 14:26:17;;;;;;;3.13;2.83;;;;;;;;;;5189585;28;20448;-67
2022/10/22 14:28:47;;;;;;;2.87;2.73;;;;;;;;;;5207597;28;20048;-67
2022/10/22 14:31:18;;;;;;;2.20;1.58;;;;;;;;;;5207116;28;20292;-67
2022/10/22 14:33:49;;;;;;;2.03;1.92;;;;;;;;;;5189225;28;20022;-67
2022/10/22 14:36:19;;;;;;;8.45;3.10;;;;;;;;;;5189437;28;20045;-67
2022/10/22 14:38:49;;;;;;;5.30;2.08;;;;;;;;;;5189286;28;20022;-67
2022/10/22 14:41:21;;;;;;;4.38;2.65;;;;;;;;;;5206679;28;20021;-67
2022/10/22 14:43:51;;;;;;;5.15;2.78;;;;;;;;;;5189094;28;20021;-68
2022/10/22 14:46:22;;;;;;;2.58;2.38;;;;;;;;;;5172997;28;20073;-66
2022/10/22 14:48:52;;;;;;;2.90;2.67;;;;;;;;;;5206927;28;20374;-67
2022/10/22 14:51:22;;;;;;;4.95;2.65;;;;;;;;;;5189062;28;20021;-67
2022/10/22 14:53:52;;;;;;;6.72;3.45;;;;;;;;;;5188878;28;20025;-67
2022/10/22 14:56:23;;;;;;;5.78;2.38;;;;;;;;;;5189265;28;20493;-67
2022/10/22 14:58:53;;;;;;;4.03;1.95;;;;;;;;;;5189206;28;20025;-67
2022/10/22 15:01:23;;;;;;;3.47;3.25;;;;;;;;;;5188854;28;20049;-68
2022/10/22 15:03:54;;;;;;;3.65;2.65;;;;;;;;;;5206364;28;20087;-67
2022/10/22 15:06:24;;;;;;;4.47;3.67;;;;;;;;;;5188982;28;20028;-66
2022/10/22 15:08:54;;;;;;;8.98;2.40;;;;;;;;;;5206324;28;20025;-67
2022/10/22 15:11:25;;;;;;;2.30;2.10;;;;;;;;;;5188860;28;20033;-69
2022/10/22 15:13:55;;;;;;;2.90;2.70;;;;;;;;;;5188500;28;20017;-67